Time;durP1;ratioP1;P1;durP2;ratioP2;P2;SDS_P1;SDS_P2;PMS_P1;PMS_P2;Temp;Humidity;BMP_temperature;BMP_pressure;BME280_temperature;BME280_humidity;BME280_pressure;Samples;Min_cycle;Max_cycle;Signal;HPM_P1;HPM_P2
2021/03/08 00:01:48;;;;;;;0.93;0.07;;;;;;;;;;5007382;28;20176;-58
2021/03/08 00:04:15;;;;;;;9.53;1.90;;;;;;;;;;5022848;28;20188;-59
2021/03/08 00:06:42;;;;;;;0.00;0.00;;;;;;;;;;5021359;28;20191;-59
2021/03/08 00:09:09;;;;;;;0.00;0.00;;;;;;;;;;5025278;28;20588;-59
2021/03/08 00:11:36;;;;;;;0.10;0.10;;;;;;;;;;5015699;28;20233;-58
2021/03/08 00:14:04;;;;;;;3.80;2.03;;;;;;;;;;5027117;28;20722;-58
2021/03/08 00:16:33;;;;;;;0.43;0.17;;;;;;;;;;5026552;28;20208;-58
2021/03/08 00:19:02;;;;;;;0.10;0.10;;;;;;;;;;5039027;28;20573;-58
2021/03/08 00:21:32;;;;;;;0.00;0.00;;;;;;;;;;5022670;28;20199;-58
2021/03/08 00:24:00;;;;;;;0.00;0.00;;;;;;;;;;5033084;28;20179;-57
2021/03/08 00:26:28;;;;;;;0.00;0.00;;;;;;;;;;5030458;28;20175;-58
2021/03/08 00:28:56;;;;;;;0.00;0.00;;;;;;;;;;5029439;28;20218;-58
2021/03/08 00:31:24;;;;;;;0.00;0.00;;;;;;;;;;5032162;28;20245;-58
2021/03/08 00:33:51;;;;;;;0.00;0.00;;;;;;;;;;5034970;28;20200;-59
2021/03/08 00:36:24;;;;;;;0.00;0.00;;;;;;;;;;5031526;28;20302;-58
2021/03/08 00:38:56;;;;;;;2.93;1.47;;;;;;;;;;5034282;28;20183;-58
2021/03/08 00:41:28;;;;;;;0.10;0.10;;;;;;;;;;5026482;28;20254;-58
2021/03/08 00:43:55;;;;;;;0.30;0.30;;;;;;;;;;5029488;28;20188;-58
2021/03/08 00:46:25;;;;;;;0.00;0.00;;;;;;;;;;5033904;28;20856;-58
2021/03/08 00:48:53;;;;;;;0.53;0.20;;;;;;;;;;5032293;28;20184;-58
2021/03/08 00:51:22;;;;;;;0.00;0.00;;;;;;;;;;5015386;28;20230;-58
2021/03/08 00:53:50;;;;;;;0.60;0.60;;;;;;;;;;5017348;28;20656;-58
2021/03/08 00:56:19;;;;;;;0.57;0.23;;;;;;;;;;5029815;28;20254;-58
2021/03/08 00:58:46;;;;;;;2.47;1.87;;;;;;;;;;5026683;28;20211;-58
2021/03/08 01:01:14;;;;;;;7.33;0.57;;;;;;;;;;5030583;28;20176;-58
2021/03/08 01:03:45;;;;;;;0.93;0.47;;;;;;;;;;5017600;28;20585;-57
2021/03/08 01:06:13;;;;;;;0.00;0.00;;;;;;;;;;5032128;28;20215;-57
2021/03/08 01:08:40;;;;;;;0.00;0.00;;;;;;;;;;5022732;28;20293;-58
2021/03/08 01:11:09;;;;;;;0.63;0.63;;;;;;;;;;5030282;28;20304;-58
2021/03/08 01:13:41;;;;;;;0.00;0.00;;;;;;;;;;5018920;28;20200;-57
2021/03/08 01:16:09;;;;;;;0.10;0.10;;;;;;;;;;5014486;28;20298;-58
2021/03/08 01:18:37;;;;;;;0.23;0.10;;;;;;;;;;5014549;28;21020;-57
2021/03/08 01:21:05;;;;;;;0.00;0.00;;;;;;;;;;5018468;28;20183;-57
2021/03/08 01:23:34;;;;;;;0.00;0.00;;;;;;;;;;5040852;28;20257;-58
2021/03/08 01:26:01;;;;;;;0.07;0.07;;;;;;;;;;5034470;28;20172;-58
2021/03/08 01:28:32;;;;;;;0.10;0.10;;;;;;;;;;5033466;28;20827;-58
2021/03/08 01:31:00;;;;;;;0.00;0.00;;;;;;;;;;5019053;28;20306;-58
2021/03/08 01:33:28;;;;;;;0.00;0.00;;;;;;;;;;5024743;28;20176;-57
2021/03/08 01:35:59;;;;;;;0.00;0.00;;;;;;;;;;5015517;28;20238;-57
2021/03/08 01:38:27;;;;;;;0.10;0.10;;;;;;;;;;5020358;28;20184;-57
2021/03/08 01:40:55;;;;;;;11.97;1.03;;;;;;;;;;5016593;28;20195;-58
2021/03/08 01:43:27;;;;;;;0.00;0.00;;;;;;;;;;5027532;28;20180;-57
2021/03/08 01:45:56;;;;;;;0.00;0.00;;;;;;;;;;5030350;28;20372;-57
2021/03/08 01:48:25;;;;;;;0.00;0.00;;;;;;;;;;5025343;28;20688;-57
2021/03/08 01:50:53;;;;;;;0.00;0.00;;;;;;;;;;5029246;28;20215;-58
2021/03/08 01:53:21;;;;;;;0.20;0.20;;;;;;;;;;5028377;28;20223;-57
2021/03/08 01:55:53;;;;;;;0.00;0.00;;;;;;;;;;5033446;28;20200;-58
2021/03/08 01:58:21;;;;;;;0.00;0.00;;;;;;;;;;5027241;28;20293;-58
2021/03/08 02:00:49;;;;;;;0.00;0.00;;;;;;;;;;5028848;28;20191;-57
2021/03/08 02:03:21;;;;;;;0.77;0.77;;;;;;;;;;5025792;28;20999;-59
2021/03/08 02:05:49;;;;;;;0.00;0.00;;;;;;;;;;5031803;28;20223;-57
2021/03/08 02:08:19;;;;;;;1.90;0.67;;;;;;;;;;5027412;28;20242;-58
2021/03/08 02:10:47;;;;;;;0.00;0.00;;;;;;;;;;5030091;28;20238;-58
2021/03/08 02:13:34;;;;;;;0.10;0.10;;;;;;;;;;5031448;28;20228;-58
2021/03/08 02:16:19;;;;;;;0.00;0.00;;;;;;;;;;5036772;28;20252;-58
2021/03/08 02:19:07;;;;;;;0.20;0.17;;;;;;;;;;5032341;28;20194;-57
2021/03/08 02:21:35;;;;;;;0.07;0.07;;;;;;;;;;5041663;28;20223;-58
2021/03/08 02:24:26;;;;;;;0.20;0.20;;;;;;;;;;5033560;28;20218;-57
2021/03/08 02:26:56;;;;;;;0.00;0.00;;;;;;;;;;5029250;28;20646;-58
2021/03/08 02:29:48;;;;;;;0.00;0.00;;;;;;;;;;5042330;28;20215;-58
2021/03/08 02:32:17;;;;;;;0.00;0.00;;;;;;;;;;5031901;28;20215;-58
2021/03/08 02:35:02;;;;;;;0.00;0.00;;;;;;;;;;5032951;28;20267;-58
2021/03/08 02:37:31;;;;;;;0.00;0.00;;;;;;;;;;5032303;28;20941;-58
2021/03/08 02:40:26;;;;;;;0.00;0.00;;;;;;;;;;5024336;28;20195;-58
2021/03/08 02:42:55;;;;;;;6.50;0.83;;;;;;;;;;5018526;28;20853;-57
2021/03/08 02:45:25;;;;;;;1.13;1.03;;;;;;;;;;5035400;28;20210;-58
2021/03/08 02:47:53;;;;;;;0.93;0.50;;;;;;;;;;5034471;28;20223;-58
2021/03/08 02:50:21;;;;;;;0.30;0.20;;;;;;;;;;5031387;28;20180;-58
2021/03/08 02:52:51;;;;;;;0.00;0.00;;;;;;;;;;5038204;28;20175;-58
2021/03/08 02:55:18;;;;;;;0.00;0.00;;;;;;;;;;5033640;28;20635;-57
2021/03/08 02:57:47;;;;;;;0.00;0.00;;;;;;;;;;5034951;28;20176;-58
2021/03/08 03:00:15;;;;;;;0.10;0.10;;;;;;;;;;5036910;28;20179;-57
2021/03/08 03:02:43;;;;;;;0.20;0.20;;;;;;;;;;5035799;28;20217;-58
2021/03/08 03:05:13;;;;;;;0.00;0.00;;;;;;;;;;5038071;28;20172;-57
2021/03/08 03:07:41;;;;;;;0.00;0.00;;;;;;;;;;5032453;28;20222;-58
2021/03/08 03:10:08;;;;;;;0.10;0.10;;;;;;;;;;5037519;28;20194;-58
2021/03/08 03:12:36;;;;;;;0.40;0.40;;;;;;;;;;5031862;28;20206;-57
2021/03/08 03:15:04;;;;;;;0.40;0.40;;;;;;;;;;5036604;28;20602;-58
2021/03/08 03:17:32;;;;;;;1.93;0.67;;;;;;;;;;5029720;28;20192;-57
2021/03/08 03:20:00;;;;;;;0.00;0.00;;;;;;;;;;5038193;28;20180;-57
2021/03/08 03:22:28;;;;;;;0.00;0.00;;;;;;;;;;5031565;28;20195;-58
2021/03/08 03:24:56;;;;;;;0.10;0.10;;;;;;;;;;5033330;28;20300;-58
2021/03/08 03:27:23;;;;;;;1.50;1.50;;;;;;;;;;5034988;28;20187;-58
2021/03/08 03:29:51;;;;;;;3.03;1.70;;;;;;;;;;5034098;28;20684;-58
2021/03/08 03:32:18;;;;;;;7.40;0.93;;;;;;;;;;5034826;28;20184;-58
2021/03/08 03:34:46;;;;;;;0.00;0.00;;;;;;;;;;5038389;28;20187;-58
2021/03/08 03:37:14;;;;;;;0.00;0.00;;;;;;;;;;5033442;28;20237;-58
2021/03/08 03:39:41;;;;;;;0.73;0.67;;;;;;;;;;5032988;28;20188;-58
2021/03/08 03:42:08;;;;;;;0.00;0.00;;;;;;;;;;5035887;28;20187;-58
2021/03/08 03:44:35;;;;;;;0.67;0.57;;;;;;;;;;5037822;28;20187;-57
2021/03/08 03:47:02;;;;;;;0.00;0.00;;;;;;;;;;5037991;28;20176;-58
2021/03/08 03:49:29;;;;;;;0.30;0.30;;;;;;;;;;5035351;28;20206;-58
2021/03/08 03:51:56;;;;;;;0.00;0.00;;;;;;;;;;5037997;28;20847;-57
2021/03/08 03:54:22;;;;;;;0.00;0.00;;;;;;;;;;5030435;28;20285;-59
2021/03/08 03:56:53;;;;;;;0.00;0.00;;;;;;;;;;5036007;28;20198;-59
2021/03/08 03:59:22;;;;;;;0.43;0.43;;;;;;;;;;5034082;28;20187;-58
2021/03/08 04:01:53;;;;;;;0.00;0.00;;;;;;;;;;5026604;28;20171;-58
2021/03/08 04:04:26;;;;;;;0.00;0.00;;;;;;;;;;5032225;28;20179;-58
2021/03/08 04:06:54;;;;;;;0.10;0.10;;;;;;;;;;5032079;28;20193;-58
2021/03/08 04:09:25;;;;;;;2.70;0.60;;;;;;;;;;5032116;28;20173;-58
2021/03/08 04:11:53;;;;;;;0.00;0.00;;;;;;;;;;5034381;28;20216;-57
2021/03/08 04:14:22;;;;;;;0.10;0.10;;;;;;;;;;5030361;28;20283;-57
2021/03/08 04:16:55;;;;;;;0.07;0.07;;;;;;;;;;5033816;28;20630;-58
2021/03/08 04:19:22;;;;;;;0.00;0.00;;;;;;;;;;5030074;28;21833;-58
2021/03/08 04:21:49;;;;;;;1.40;1.07;;;;;;;;;;5033366;28;20250;-58
2021/03/08 04:24:17;;;;;;;0.00;0.00;;;;;;;;;;5033495;28;20278;-58
2021/03/08 04:26:43;;;;;;;0.00;0.00;;;;;;;;;;5035370;28;20229;-58
2021/03/08 04:29:10;;;;;;;0.00;0.00;;;;;;;;;;5036125;28;20183;-58
2021/03/08 04:31:37;;;;;;;0.00;0.00;;;;;;;;;;5036057;28;20190;-59
2021/03/08 04:34:05;;;;;;;0.77;0.77;;;;;;;;;;5030984;28;20403;-58
2021/03/08 04:36:32;;;;;;;0.00;0.00;;;;;;;;;;5028072;28;20258;-58
2021/03/08 04:38:59;;;;;;;0.00;0.00;;;;;;;;;;5037193;28;20190;-58
2021/03/08 04:41:30;;;;;;;9.97;1.27;;;;;;;;;;5032041;28;20208;-58
2021/03/08 04:43:57;;;;;;;0.00;0.00;;;;;;;;;;5033970;28;20183;-57
2021/03/08 04:46:24;;;;;;;0.10;0.10;;;;;;;;;;5036447;28;20195;-58
2021/03/08 04:48:51;;;;;;;0.00;0.00;;;;;;;;;;5034999;28;20269;-58
2021/03/08 04:51:19;;;;;;;0.00;0.00;;;;;;;;;;5036360;28;20361;-59
2021/03/08 04:53:46;;;;;;;0.10;0.10;;;;;;;;;;5030181;28;20536;-58
2021/03/08 04:56:15;;;;;;;0.00;0.00;;;;;;;;;;5024147;28;20198;-58
2021/03/08 04:58:41;;;;;;;0.10;0.10;;;;;;;;;;5022582;28;20236;-58
2021/03/08 05:01:08;;;;;;;0.00;0.00;;;;;;;;;;5030036;28;20182;-58
2021/03/08 05:03:35;;;;;;;0.10;0.10;;;;;;;;;;5024135;28;20191;-58
2021/03/08 05:06:03;;;;;;;0.00;0.00;;;;;;;;;;5028001;28;20211;-58
2021/03/08 05:08:31;;;;;;;2.50;1.20;;;;;;;;;;5025320;28;20183;-58
2021/03/08 05:10:57;;;;;;;0.00;0.00;;;;;;;;;;5027357;28;20193;-57
2021/03/08 05:13:24;;;;;;;0.10;0.10;;;;;;;;;;5029361;28;20573;-57
2021/03/08 05:15:52;;;;;;;0.47;0.47;;;;;;;;;;5025426;28;20729;-58
2021/03/08 05:18:19;;;;;;;18.67;0.57;;;;;;;;;;5026557;28;20175;-57
2021/03/08 05:20:47;;;;;;;0.00;0.00;;;;;;;;;;5026156;28;20180;-57
2021/03/08 05:23:13;;;;;;;0.00;0.00;;;;;;;;;;5031097;28;20176;-57
2021/03/08 05:25:40;;;;;;;0.00;0.00;;;;;;;;;;5032534;28;20532;-58
2021/03/08 05:28:09;;;;;;;0.00;0.00;;;;;;;;;;5028170;28;20300;-59
2021/03/08 05:30:36;;;;;;;0.00;0.00;;;;;;;;;;5027084;28;20704;-58
2021/03/08 05:33:09;;;;;;;0.00;0.00;;;;;;;;;;5026813;28;20224;-59
2021/03/08 05:35:35;;;;;;;0.10;0.10;;;;;;;;;;5028378;28;20179;-58
2021/03/08 05:38:04;;;;;;;0.00;0.00;;;;;;;;;;5026816;28;20619;-58
2021/03/08 05:40:30;;;;;;;0.07;0.07;;;;;;;;;;5029230;28;20241;-58
2021/03/08 05:43:23;;;;;;;0.00;0.00;;;;;;;;;;5028713;28;20194;-58
2021/03/08 05:46:23;;;;;;;0.00;0.00;;;;;;;;;;5024998;28;20941;-59
2021/03/08 05:48:58;;;;;;;0.10;0.10;;;;;;;;;;5013633;28;20194;-58
2021/03/08 05:51:44;;;;;;;0.00;0.00;;;;;;;;;;5027389;28;20226;-58
2021/03/08 05:54:20;;;;;;;0.00;0.00;;;;;;;;;;5030704;28;20179;-58
2021/03/08 05:57:05;;;;;;;1.60;0.63;;;;;;;;;;5022686;28;20245;-59
2021/03/08 05:59:32;;;;;;;0.23;0.23;;;;;;;;;;5032020;28;20164;-58
2021/03/08 06:02:17;;;;;;;1.33;0.67;;;;;;;;;;5026579;28;20175;-58
2021/03/08 06:04:49;;;;;;;0.00;0.00;;;;;;;;;;5029214;28;20179;-59
2021/03/08 06:07:27;;;;;;;9.53;0.97;;;;;;;;;;5026423;28;20724;-58
2021/03/08 06:10:03;;;;;;;0.00;0.00;;;;;;;;;;5026658;28;20228;-59
2021/03/08 06:12:32;;;;;;;0.03;0.03;;;;;;;;;;5036897;28;20194;-58
2021/03/08 06:15:02;;;;;;;0.00;0.00;;;;;;;;;;5028008;28;20197;-58
2021/03/08 06:17:30;;;;;;;0.00;0.00;;;;;;;;;;5026961;28;20211;-58
2021/03/08 06:19:58;;;;;;;0.00;0.00;;;;;;;;;;5035970;28;20282;-58
2021/03/08 06:22:24;;;;;;;0.87;0.47;;;;;;;;;;5034815;28;20185;-58
2021/03/08 06:24:51;;;;;;;0.10;0.10;;;;;;;;;;5031401;28;20220;-58
2021/03/08 06:27:18;;;;;;;0.00;0.00;;;;;;;;;;5031980;28;20187;-58
2021/03/08 06:29:45;;;;;;;0.00;0.00;;;;;;;;;;5028891;28;20187;-59
2021/03/08 06:32:12;;;;;;;0.67;0.30;;;;;;;;;;5033256;28;20240;-58
2021/03/08 06:34:40;;;;;;;0.10;0.10;;;;;;;;;;5033379;28;20189;-58
2021/03/08 06:37:07;;;;;;;0.10;0.10;;;;;;;;;;5029808;28;20231;-58
2021/03/08 06:39:35;;;;;;;0.00;0.00;;;;;;;;;;5029525;28;20191;-58
2021/03/08 06:42:03;;;;;;;0.10;0.10;;;;;;;;;;5034061;28;20784;-58
2021/03/08 06:44:30;;;;;;;0.03;0.03;;;;;;;;;;5029979;28;20168;-58
2021/03/08 06:46:57;;;;;;;0.00;0.00;;;;;;;;;;5029420;28;20210;-58
2021/03/08 06:49:25;;;;;;;0.00;0.00;;;;;;;;;;5030428;28;20192;-58
2021/03/08 06:52:01;;;;;;;0.07;0.07;;;;;;;;;;5034922;28;20189;-58
2021/03/08 06:54:28;;;;;;;0.17;0.17;;;;;;;;;;5033536;28;20198;-58
2021/03/08 06:56:54;;;;;;;0.10;0.10;;;;;;;;;;5033548;28;20238;-59
2021/03/08 06:59:21;;;;;;;0.03;0.03;;;;;;;;;;5034313;28;20199;-58
2021/03/08 07:01:47;;;;;;;0.10;0.10;;;;;;;;;;5034882;28;20184;-58
2021/03/08 07:04:16;;;;;;;0.10;0.10;;;;;;;;;;5034764;28;20209;-58
2021/03/08 07:06:43;;;;;;;0.00;0.00;;;;;;;;;;5033912;28;20183;-58
2021/03/08 07:09:09;;;;;;;0.10;0.10;;;;;;;;;;5032083;28;20535;-59
2021/03/08 07:11:36;;;;;;;0.00;0.00;;;;;;;;;;5031286;28;20212;-58
2021/03/08 07:14:03;;;;;;;0.00;0.00;;;;;;;;;;5033054;28;20194;-58
2021/03/08 07:16:38;;;;;;;0.00;0.00;;;;;;;;;;5034151;28;20211;-59
2021/03/08 07:19:04;;;;;;;1.10;0.10;;;;;;;;;;5032026;28;20573;-58
2021/03/08 07:21:31;;;;;;;0.10;0.10;;;;;;;;;;5033687;28;20170;-58
2021/03/08 07:24:11;;;;;;;0.00;0.00;;;;;;;;;;5028415;28;20182;-59
2021/03/08 07:26:38;;;;;;;0.00;0.00;;;;;;;;;;5032599;28;20225;-59
2021/03/08 07:29:08;;;;;;;0.00;0.00;;;;;;;;;;5029724;28;20893;-59
2021/03/08 07:31:36;;;;;;;0.00;0.00;;;;;;;;;;5030794;28;20195;-58
2021/03/08 07:34:03;;;;;;;0.00;0.00;;;;;;;;;;5031033;28;20227;-59
2021/03/08 07:36:30;;;;;;;0.00;0.00;;;;;;;;;;5033848;28;20233;-58
2021/03/08 07:38:56;;;;;;;0.00;0.00;;;;;;;;;;5030517;28;20192;-58
2021/03/08 07:41:24;;;;;;;0.10;0.10;;;;;;;;;;5032792;28;20188;-59
2021/03/08 07:43:52;;;;;;;0.10;0.10;;;;;;;;;;5033308;28;20564;-58
2021/03/08 07:46:28;;;;;;;1.20;1.20;;;;;;;;;;5031508;28;20199;-58
2021/03/08 07:48:55;;;;;;;0.00;0.00;;;;;;;;;;5033460;28;20186;-58
2021/03/08 07:51:22;;;;;;;0.00;0.00;;;;;;;;;;5030584;28;20285;-58
2021/03/08 07:53:48;;;;;;;0.13;0.13;;;;;;;;;;5034744;28;20190;-58
2021/03/08 07:56:15;;;;;;;0.00;0.00;;;;;;;;;;5035100;28;20211;-58
2021/03/08 07:58:41;;;;;;;0.00;0.00;;;;;;;;;;5033714;28;20181;-58
2021/03/08 08:01:09;;;;;;;0.00;0.00;;;;;;;;;;5032175;28;20178;-58
2021/03/08 08:03:36;;;;;;;6.80;4.57;;;;;;;;;;5032773;28;20198;-58
2021/03/08 08:06:10;;;;;;;0.00;0.00;;;;;;;;;;5029824;28;20279;-59
2021/03/08 08:08:38;;;;;;;0.00;0.00;;;;;;;;;;5026984;28;20904;-58
2021/03/08 08:11:06;;;;;;;0.53;0.10;;;;;;;;;;5027868;28;20187;-58
2021/03/08 08:13:45;;;;;;;0.00;0.00;;;;;;;;;;5025785;28;20278;-58
2021/03/08 08:16:13;;;;;;;0.00;0.00;;;;;;;;;;5032778;28;20203;-59
2021/03/08 08:18:40;;;;;;;0.70;0.70;;;;;;;;;;5025833;28;20532;-58
2021/03/08 08:21:10;;;;;;;0.00;0.00;;;;;;;;;;5032017;28;20175;-59
2021/03/08 08:23:39;;;;;;;0.00;0.00;;;;;;;;;;5030477;28;20186;-59
2021/03/08 08:26:08;;;;;;;0.00;0.00;;;;;;;;;;5030809;28;20192;-58
2021/03/08 08:28:35;;;;;;;0.07;0.07;;;;;;;;;;5031082;28;20189;-59
2021/03/08 08:31:01;;;;;;;0.00;0.00;;;;;;;;;;5033996;28;20221;-58
2021/03/08 08:33:29;;;;;;;0.00;0.00;;;;;;;;;;5034156;28;20593;-58
2021/03/08 08:36:08;;;;;;;0.10;0.10;;;;;;;;;;5032758;28;20302;-59
2021/03/08 13:27:47;;;;;;;6.40;0.73;;;;;;;;;;5065812;28;20576;-58
2021/03/08 13:30:15;;;;;;;2.30;0.40;;;;;;;;;;5046877;28;20181;-58
2021/03/08 13:32:41;;;;;;;0.00;0.00;;;;;;;;;;5047618;28;20167;-58
2021/03/08 13:35:08;;;;;;;0.00;0.00;;;;;;;;;;5045785;28;20179;-58
2021/03/08 13:37:35;;;;;;;4.70;0.87;;;;;;;;;;5051018;28;20185;-58
2021/03/08 13:40:02;;;;;;;2.10;0.30;;;;;;;;;;5043157;28;20592;-58
2021/03/08 13:42:28;;;;;;;4.07;0.73;;;;;;;;;;5041943;28;20660;-58
2021/03/08 13:44:56;;;;;;;0.63;0.63;;;;;;;;;;5042707;28;20297;-58
2021/03/08 13:47:22;;;;;;;0.00;0.00;;;;;;;;;;5049935;28;21049;-58
2021/03/08 13:49:49;;;;;;;0.90;0.70;;;;;;;;;;5048735;28;20201;-58
2021/03/08 13:52:15;;;;;;;1.33;0.30;;;;;;;;;;5042293;28;20168;-58
2021/03/08 13:54:42;;;;;;;0.13;0.13;;;;;;;;;;5049232;28;20898;-58
2021/03/08 13:57:09;;;;;;;0.00;0.00;;;;;;;;;;5048505;28;21142;-58
2021/03/08 13:59:35;;;;;;;3.50;0.33;;;;;;;;;;5042915;28;20208;-58
2021/03/08 14:02:02;;;;;;;7.83;1.60;;;;;;;;;;5042614;28;20176;-59
2021/03/08 14:04:28;;;;;;;0.00;0.00;;;;;;;;;;5045463;28;20550;-58
2021/03/08 14:06:55;;;;;;;0.27;0.27;;;;;;;;;;5049424;28;20207;-58
2021/03/08 14:09:22;;;;;;;0.00;0.00;;;;;;;;;;5045824;28;20179;-58
2021/03/08 14:11:48;;;;;;;0.00;0.00;;;;;;;;;;5042960;28;20171;-58
2021/03/08 14:14:16;;;;;;;1.37;0.47;;;;;;;;;;5044848;28;20198;-58
2021/03/08 14:16:43;;;;;;;0.00;0.00;;;;;;;;;;5046151;28;20265;-58
2021/03/08 14:19:10;;;;;;;0.10;0.10;;;;;;;;;;5046214;28;20724;-58
2021/03/08 14:21:36;;;;;;;0.00;0.00;;;;;;;;;;5049591;28;20329;-58
2021/03/08 14:24:03;;;;;;;0.60;0.60;;;;;;;;;;5049795;28;20545;-58
2021/03/08 14:26:30;;;;;;;0.00;0.00;;;;;;;;;;5043405;28;20231;-58
2021/03/08 14:28:56;;;;;;;1.07;0.97;;;;;;;;;;5039902;28;20828;-57
2021/03/08 14:31:26;;;;;;;0.50;0.30;;;;;;;;;;5041685;28;20178;-57
2021/03/08 14:33:52;;;;;;;0.10;0.10;;;;;;;;;;5041146;28;20634;-58
2021/03/08 14:36:19;;;;;;;0.33;0.33;;;;;;;;;;5043034;28;20680;-58
2021/03/08 14:38:46;;;;;;;0.47;0.17;;;;;;;;;;5034259;28;20179;-57
2021/03/08 14:41:12;;;;;;;0.00;0.00;;;;;;;;;;5032028;28;20574;-58
2021/03/08 14:43:39;;;;;;;5.10;0.67;;;;;;;;;;5028102;28;20182;-58
2021/03/08 14:46:05;;;;;;;2.00;0.83;;;;;;;;;;5031860;28;20670;-57
2021/03/08 14:48:32;;;;;;;0.10;0.10;;;;;;;;;;5027440;28;20226;-58
2021/03/08 14:50:59;;;;;;;0.53;0.53;;;;;;;;;;5028686;28;20769;-58
2021/03/08 14:53:25;;;;;;;0.40;0.20;;;;;;;;;;5025139;28;20687;-57
2021/03/08 14:55:52;;;;;;;0.00;0.00;;;;;;;;;;5030727;28;20898;-58
2021/03/08 14:58:18;;;;;;;0.33;0.30;;;;;;;;;;5034404;28;20191;-59
2021/03/08 15:00:45;;;;;;;0.10;0.10;;;;;;;;;;5036806;28;20186;-58
2021/03/08 15:03:13;;;;;;;0.93;0.30;;;;;;;;;;5030379;28;20547;-58
2021/03/08 15:05:39;;;;;;;0.77;0.63;;;;;;;;;;5036969;28;20202;-57
2021/03/08 15:08:06;;;;;;;0.33;0.33;;;;;;;;;;5033531;28;20186;-58
2021/03/08 15:10:33;;;;;;;0.67;0.40;;;;;;;;;;5035127;28;20719;-58
2021/03/08 15:13:00;;;;;;;3.53;1.40;;;;;;;;;;5034690;28;20261;-57
2021/03/08 15:15:26;;;;;;;0.00;0.00;;;;;;;;;;5034442;28;20547;-60
2021/03/08 15:17:53;;;;;;;1.13;1.03;;;;;;;;;;5032084;28;20177;-58
2021/03/08 15:20:20;;;;;;;0.50;0.50;;;;;;;;;;5030835;28;20178;-58
2021/03/08 15:22:47;;;;;;;0.00;0.00;;;;;;;;;;5032112;28;20239;-58
2021/03/08 15:25:13;;;;;;;0.00;0.00;;;;;;;;;;5033133;28;20197;-59
2021/03/08 15:27:40;;;;;;;0.10;0.00;;;;;;;;;;5026821;28;20254;-57
2021/03/08 15:30:08;;;;;;;0.13;0.13;;;;;;;;;;5033061;28;20210;-58
2021/03/08 15:32:36;;;;;;;0.43;0.43;;;;;;;;;;5032453;28;20203;-58
2021/03/08 15:35:04;;;;;;;0.10;0.00;;;;;;;;;;5027579;28;20413;-58
2021/03/08 15:37:31;;;;;;;1.13;0.67;;;;;;;;;;5035303;28;20211;-58
2021/03/08 15:39:58;;;;;;;0.57;0.00;;;;;;;;;;5032420;28;20242;-58
2021/03/08 15:42:24;;;;;;;0.00;0.00;;;;;;;;;;5031625;28;20202;-58
2021/03/08 15:44:51;;;;;;;0.37;0.17;;;;;;;;;;5029453;28;20278;-59
2021/03/08 15:47:18;;;;;;;1.03;0.13;;;;;;;;;;5031715;28;20210;-58
2021/03/08 15:49:44;;;;;;;0.23;0.20;;;;;;;;;;5029288;28;20168;-59
2021/03/08 15:52:11;;;;;;;0.97;0.53;;;;;;;;;;5036471;28;20182;-58
2021/03/08 15:54:39;;;;;;;0.00;0.00;;;;;;;;;;5035818;28;20239;-58
2021/03/08 15:57:06;;;;;;;1.80;1.67;;;;;;;;;;5032213;28;20219;-58
2021/03/08 15:59:33;;;;;;;0.63;0.43;;;;;;;;;;5033805;28;20285;-58
2021/03/08 16:01:59;;;;;;;0.60;0.27;;;;;;;;;;5029078;28;20938;-58
2021/03/08 16:04:26;;;;;;;0.30;0.30;;;;;;;;;;5029096;28;20189;-59
2021/03/08 16:06:52;;;;;;;0.00;0.00;;;;;;;;;;5029500;28;20207;-58
2021/03/08 16:09:19;;;;;;;0.43;0.37;;;;;;;;;;5033488;28;20261;-58
2021/03/08 16:11:46;;;;;;;0.00;0.00;;;;;;;;;;5028486;28;20178;-58
2021/03/08 16:14:12;;;;;;;0.77;0.77;;;;;;;;;;5029425;28;20181;-58
2021/03/08 16:16:39;;;;;;;1.80;0.73;;;;;;;;;;5027706;28;20182;-59
2021/03/08 16:19:05;;;;;;;0.20;0.20;;;;;;;;;;5028506;28;20181;-58
2021/03/08 16:21:33;;;;;;;1.50;0.57;;;;;;;;;;5029733;28;20194;-58
2021/03/08 16:24:00;;;;;;;0.20;0.20;;;;;;;;;;5030592;28;20223;-57
2021/03/08 16:26:27;;;;;;;0.00;0.00;;;;;;;;;;5026002;28;20753;-58
2021/03/08 16:28:54;;;;;;;0.10;0.10;;;;;;;;;;5029700;28;20181;-58
2021/03/08 16:31:20;;;;;;;0.00;0.00;;;;;;;;;;5029311;28;20180;-58
2021/03/08 16:33:47;;;;;;;0.17;0.17;;;;;;;;;;5029272;28;20182;-58
2021/03/08 16:36:14;;;;;;;0.00;0.00;;;;;;;;;;5030663;28;20188;-58
2021/03/08 16:38:40;;;;;;;0.97;0.40;;;;;;;;;;5028247;28;20180;-58
2021/03/08 16:41:07;;;;;;;0.30;0.20;;;;;;;;;;5029306;28;20176;-59
2021/03/08 16:43:34;;;;;;;1.20;0.93;;;;;;;;;;5029849;28;20194;-58
2021/03/08 16:46:04;;;;;;;0.20;0.20;;;;;;;;;;5027642;28;20959;-59
2021/03/08 16:48:31;;;;;;;0.30;0.13;;;;;;;;;;5030262;28;20314;-58
2021/03/08 16:51:05;;;;;;;0.13;0.07;;;;;;;;;;5030621;28;20180;-59
2021/03/08 16:53:32;;;;;;;2.03;0.10;;;;;;;;;;5028737;28;20182;-59
2021/03/08 16:55:59;;;;;;;7.33;1.70;;;;;;;;;;5029691;28;20252;-58
2021/03/08 16:58:26;;;;;;;2.50;0.80;;;;;;;;;;5031178;28;21044;-59
2021/03/08 17:00:53;;;;;;;0.20;0.20;;;;;;;;;;5026776;28;20192;-58
2021/03/08 17:03:20;;;;;;;0.10;0.10;;;;;;;;;;5034665;28;20290;-59
2021/03/08 17:05:46;;;;;;;0.00;0.00;;;;;;;;;;5030417;28;20285;-59
2021/03/08 17:08:13;;;;;;;1.93;0.53;;;;;;;;;;5026106;28;20176;-59
2021/03/08 17:10:39;;;;;;;2.17;0.73;;;;;;;;;;5024934;28;20185;-59
2021/03/08 17:13:06;;;;;;;0.00;0.00;;;;;;;;;;5032539;28;20176;-59
2021/03/08 17:15:33;;;;;;;0.87;0.30;;;;;;;;;;5031760;28;20184;-59
2021/03/08 17:18:00;;;;;;;0.00;0.00;;;;;;;;;;5030087;28;20190;-58
2021/03/08 17:20:27;;;;;;;0.63;0.20;;;;;;;;;;5027977;28;20187;-59
2021/03/08 17:22:53;;;;;;;0.00;0.00;;;;;;;;;;5027561;28;20694;-58
2021/03/08 17:25:21;;;;;;;0.43;0.10;;;;;;;;;;5032058;28;20187;-60
2021/03/08 17:27:48;;;;;;;0.63;0.00;;;;;;;;;;5029780;28;20192;-59
2021/03/08 17:30:16;;;;;;;0.20;0.13;;;;;;;;;;5032635;28;20174;-58
2021/03/08 17:32:43;;;;;;;0.20;0.20;;;;;;;;;;5031062;28;20182;-59
2021/03/08 17:35:09;;;;;;;0.07;0.00;;;;;;;;;;5028149;28;20716;-58
2021/03/08 17:37:36;;;;;;;3.50;0.93;;;;;;;;;;5027925;28;20295;-58
2021/03/08 17:40:03;;;;;;;0.60;0.47;;;;;;;;;;5027733;28;20176;-58
2021/03/08 17:42:30;;;;;;;3.10;0.43;;;;;;;;;;5026430;28;20176;-59
2021/03/08 17:44:57;;;;;;;0.07;0.07;;;;;;;;;;5030082;28;20193;-59
2021/03/08 17:47:24;;;;;;;0.67;0.57;;;;;;;;;;5027603;28;20199;-58
2021/03/08 17:49:50;;;;;;;0.20;0.20;;;;;;;;;;5030749;28;20722;-59
2021/03/08 17:52:17;;;;;;;31.13;2.20;;;;;;;;;;5027836;28;20476;-58
2021/03/08 17:54:44;;;;;;;0.00;0.00;;;;;;;;;;5027100;28;20172;-59
2021/03/08 17:57:10;;;;;;;1.27;0.47;;;;;;;;;;5027898;28;20586;-59
2021/03/08 17:59:37;;;;;;;0.00;0.00;;;;;;;;;;5029391;28;20174;-58
2021/03/08 18:02:03;;;;;;;0.10;0.00;;;;;;;;;;5027515;28;20850;-58
2021/03/08 18:04:30;;;;;;;18.57;0.57;;;;;;;;;;5025886;28;20845;-59
2021/03/08 18:06:57;;;;;;;0.57;0.20;;;;;;;;;;5030633;28;20204;-59
2021/03/08 18:09:24;;;;;;;1.00;0.50;;;;;;;;;;5026140;28;20173;-58
2021/03/08 18:11:50;;;;;;;0.00;0.00;;;;;;;;;;5028622;28;20592;-58
2021/03/08 18:14:17;;;;;;;0.00;0.00;;;;;;;;;;5033582;28;20191;-58
2021/03/08 18:16:45;;;;;;;0.00;0.00;;;;;;;;;;5030685;28;20211;-59
2021/03/08 18:19:12;;;;;;;0.00;0.00;;;;;;;;;;5028393;28;20184;-58
2021/03/08 18:21:38;;;;;;;1.33;0.83;;;;;;;;;;5034239;28;20191;-59
2021/03/08 18:24:05;;;;;;;1.50;0.40;;;;;;;;;;5033083;28;20230;-59
2021/03/08 18:26:32;;;;;;;0.00;0.00;;;;;;;;;;5030974;28;20227;-59
2021/03/08 18:28:58;;;;;;;0.63;0.63;;;;;;;;;;5032202;28;20168;-58
2021/03/08 18:31:25;;;;;;;13.60;0.53;;;;;;;;;;5031965;28;20172;-58
2021/03/08 18:33:51;;;;;;;0.17;0.17;;;;;;;;;;5028857;28;20180;-59
2021/03/08 18:36:18;;;;;;;0.77;0.67;;;;;;;;;;5029066;28;20193;-59
2021/03/08 18:38:45;;;;;;;0.00;0.00;;;;;;;;;;5031076;28;20192;-59
2021/03/08 18:41:11;;;;;;;0.00;0.00;;;;;;;;;;5030827;28;20196;-58
2021/03/08 18:43:38;;;;;;;0.10;0.10;;;;;;;;;;5030061;28;20758;-58
2021/03/08 18:46:04;;;;;;;0.00;0.00;;;;;;;;;;5033166;28;20216;-59
2021/03/08 18:48:31;;;;;;;0.00;0.00;;;;;;;;;;5029700;28;20173;-59
2021/03/08 18:50:58;;;;;;;0.07;0.07;;;;;;;;;;5032302;28;20222;-58
2021/03/08 18:53:24;;;;;;;1.70;0.63;;;;;;;;;;5030762;28;20674;-58
2021/03/08 18:55:51;;;;;;;0.00;0.00;;;;;;;;;;5032050;28;20812;-57
2021/03/08 18:58:18;;;;;;;0.63;0.20;;;;;;;;;;5032838;28;20739;-58
2021/03/08 19:00:44;;;;;;;0.00;0.00;;;;;;;;;;5029357;28;21002;-59
2021/03/08 19:03:11;;;;;;;0.17;0.17;;;;;;;;;;5029240;28;20172;-59
2021/03/08 19:05:37;;;;;;;0.13;0.13;;;;;;;;;;5032302;28;20189;-58
2021/03/08 19:08:04;;;;;;;0.13;0.10;;;;;;;;;;5034083;28;20174;-58
2021/03/08 19:10:31;;;;;;;0.00;0.00;;;;;;;;;;5025427;28;20179;-58
2021/03/08 19:12:57;;;;;;;4.07;1.50;;;;;;;;;;5031164;28;20183;-59
2021/03/08 19:15:24;;;;;;;2.93;0.10;;;;;;;;;;5031575;28;20179;-59
2021/03/08 19:17:50;;;;;;;0.00;0.00;;;;;;;;;;5028246;28;20998;-59
2021/03/08 19:20:17;;;;;;;0.00;0.00;;;;;;;;;;5035008;28;20180;-60
2021/03/08 19:22:44;;;;;;;0.00;0.00;;;;;;;;;;5028504;28;20192;-59
2021/03/08 19:25:11;;;;;;;0.33;0.07;;;;;;;;;;5030085;28;20749;-59
2021/03/08 19:27:37;;;;;;;0.53;0.53;;;;;;;;;;5028648;28;20227;-61
2021/03/08 19:30:05;;;;;;;2.27;0.60;;;;;;;;;;5027757;28;20236;-59
2021/03/08 19:32:32;;;;;;;0.00;0.00;;;;;;;;;;5026279;28;20637;-59
2021/03/08 19:34:59;;;;;;;5.10;2.53;;;;;;;;;;5026537;28;20173;-59
2021/03/08 19:37:25;;;;;;;0.00;0.00;;;;;;;;;;5025973;28;20239;-59
2021/03/08 19:39:52;;;;;;;0.67;0.20;;;;;;;;;;5025383;28;20670;-58